sensor_id;sensor_type;location;lat;lon;timestamp;P1;durP1;ratioP1;P2;durP2;ratioP2
4132;SDS011;2080;51.038;7.008;2022-09-21T00:00:04;544.27;;;491.27;;
4132;SDS011;2080;51.038;7.008;2022-09-21T00:02:32;519.80;;;467.13;;
4132;SDS011;2080;51.038;7.008;2022-09-21T00:04:58;555.03;;;501.57;;
4132;SDS011;2080;51.038;7.008;2022-09-21T00:07:23;549.10;;;495.83;;
4132;SDS011;2080;51.038;7.008;2022-09-21T00:09:48;586.00;;;530.93;;
4132;SDS011;2080;51.038;7.008;2022-09-21T00:12:16;487.37;;;436.60;;
4132;SDS011;2080;51.038;7.008;2022-09-21T00:14:42;481.83;;;431.53;;
4132;SDS011;2080;51.038;7.008;2022-09-21T00:17:09;441.27;;;392.80;;
4132;SDS011;2080;51.038;7.008;2022-09-21T00:32:09;579.80;;;524.33;;
4132;SDS011;2080;51.038;7.008;2022-09-21T00:34:37;528.53;;;475.73;;
4132;SDS011;2080;51.038;7.008;2022-09-21T00:37:02;536.70;;;484.10;;
4132;SDS011;2080;51.038;7.008;2022-09-21T00:39:30;568.47;;;514.23;;
4132;SDS011;2080;51.038;7.008;2022-09-21T00:41:55;537.90;;;485.37;;
4132;SDS011;2080;51.038;7.008;2022-09-21T00:44:29;560.67;;;507.13;;
4132;SDS011;2080;51.038;7.008;2022-09-21T00:47:43;577.53;;;522.43;;
4132;SDS011;2080;51.038;7.008;2022-09-21T00:49:52;573.83;;;518.83;;
4132;SDS011;2080;51.038;7.008;2022-09-21T00:52:25;620.43;;;562.10;;
4132;SDS011;2080;51.038;7.008;2022-09-21T00:54:56;590.37;;;534.93;;
4132;SDS011;2080;51.038;7.008;2022-09-21T00:57:36;512.73;;;461.23;;
4132;SDS011;2080;51.038;7.008;2022-09-21T01:00:04;596.77;;;540.00;;
4132;SDS011;2080;51.038;7.008;2022-09-21T01:02:33;545.73;;;492.67;;
4132;SDS011;2080;51.038;7.008;2022-09-21T01:05:03;561.60;;;507.47;;
4132;SDS011;2080;51.038;7.008;2022-09-21T01:07:30;550.23;;;496.83;;
4132;SDS011;2080;51.038;7.008;2022-09-21T01:10:03;635.20;;;577.73;;
4132;SDS011;2080;51.038;7.008;2022-09-21T01:12:37;576.40;;;522.03;;
4132;SDS011;2080;51.038;7.008;2022-09-21T01:18:19;521.53;;;469.63;;
4132;SDS011;2080;51.038;7.008;2022-09-21T01:21:18;541.37;;;488.87;;
4132;SDS011;2080;51.038;7.008;2022-09-21T01:29:15;571.00;;;515.80;;
4132;SDS011;2080;51.038;7.008;2022-09-21T01:32:08;528.67;;;476.77;;
4132;SDS011;2080;51.038;7.008;2022-09-21T01:34:41;491.00;;;439.97;;
4132;SDS011;2080;51.038;7.008;2022-09-21T01:37:12;418.07;;;347.07;;
4132;SDS011;2080;51.038;7.008;2022-09-21T01:39:42;412.33;;;332.80;;
4132;SDS011;2080;51.038;7.008;2022-09-21T01:42:12;556.03;;;502.50;;
4132;SDS011;2080;51.038;7.008;2022-09-21T01:44:44;525.57;;;472.93;;
4132;SDS011;2080;51.038;7.008;2022-09-21T01:47:11;569.67;;;514.33;;
4132;SDS011;2080;51.038;7.008;2022-09-21T01:49:39;539.73;;;487.13;;
4132;SDS011;2080;51.038;7.008;2022-09-21T01:52:26;515.27;;;463.97;;
4132;SDS011;2080;51.038;7.008;2022-09-21T01:55:00;472.77;;;423.27;;
4132;SDS011;2080;51.038;7.008;2022-09-21T01:57:36;446.43;;;397.80;;
4132;SDS011;2080;51.038;7.008;2022-09-21T02:00:03;528.10;;;476.00;;
4132;SDS011;2080;51.038;7.008;2022-09-21T02:02:33;495.43;;;443.80;;
4132;SDS011;2080;51.038;7.008;2022-09-21T02:05:00;487.93;;;436.87;;
4132;SDS011;2080;51.038;7.008;2022-09-21T02:07:26;501.70;;;450.30;;
4132;SDS011;2080;51.038;7.008;2022-09-21T02:09:54;422.77;;;354.03;;
4132;SDS011;2080;51.038;7.008;2022-09-21T02:12:27;542.33;;;488.30;;
4132;SDS011;2080;51.038;7.008;2022-09-21T02:14:52;502.10;;;449.83;;
4132;SDS011;2080;51.038;7.008;2022-09-21T02:20:45;514.90;;;462.77;;
4132;SDS011;2080;51.038;7.008;2022-09-21T02:25:49;442.27;;;393.70;;
4132;SDS011;2080;51.038;7.008;2022-09-21T02:34:02;479.97;;;430.10;;
4132;SDS011;2080;51.038;7.008;2022-09-21T02:36:37;528.83;;;474.60;;
4132;SDS011;2080;51.038;7.008;2022-09-21T02:39:10;540.93;;;487.57;;
4132;SDS011;2080;51.038;7.008;2022-09-21T02:44:45;520.10;;;466.90;;
4132;SDS011;2080;51.038;7.008;2022-09-21T02:47:17;523.23;;;469.87;;
4132;SDS011;2080;51.038;7.008;2022-09-21T02:49:51;589.37;;;533.63;;
4132;SDS011;2080;51.038;7.008;2022-09-21T02:52:23;555.60;;;501.80;;
4132;SDS011;2080;51.038;7.008;2022-09-21T02:54:52;467.83;;;412.73;;
4132;SDS011;2080;51.038;7.008;2022-09-21T02:57:20;539.80;;;486.57;;
4132;SDS011;2080;51.038;7.008;2022-09-21T02:59:47;498.23;;;446.47;;
4132;SDS011;2080;51.038;7.008;2022-09-21T03:02:14;429.80;;;372.00;;
4132;SDS011;2080;51.038;7.008;2022-09-21T03:04:40;487.27;;;436.40;;
4132;SDS011;2080;51.038;7.008;2022-09-21T03:07:11;566.30;;;511.83;;
4132;SDS011;2080;51.038;7.008;2022-09-21T03:09:38;512.53;;;460.27;;
4132;SDS011;2080;51.038;7.008;2022-09-21T03:12:03;451.50;;;367.17;;
4132;SDS011;2080;51.038;7.008;2022-09-21T03:14:29;469.90;;;419.93;;
4132;SDS011;2080;51.038;7.008;2022-09-21T03:16:57;508.33;;;456.80;;
4132;SDS011;2080;51.038;7.008;2022-09-21T03:19:25;452.40;;;365.67;;
4132;SDS011;2080;51.038;7.008;2022-09-21T03:21:52;519.70;;;467.53;;
4132;SDS011;2080;51.038;7.008;2022-09-21T03:24:20;433.23;;;365.53;;
4132;SDS011;2080;51.038;7.008;2022-09-21T03:27:07;433.07;;;341.53;;
4132;SDS011;2080;51.038;7.008;2022-09-21T03:29:35;454.40;;;370.60;;
4132;SDS011;2080;51.038;7.008;2022-09-21T03:32:03;528.50;;;475.27;;
4132;SDS011;2080;51.038;7.008;2022-09-21T03:34:30;500.73;;;448.83;;
4132;SDS011;2080;51.038;7.008;2022-09-21T03:36:58;426.63;;;350.90;;
4132;SDS011;2080;51.038;7.008;2022-09-21T03:39:27;493.13;;;442.07;;
4132;SDS011;2080;51.038;7.008;2022-09-21T03:41:58;519.53;;;467.33;;
4132;SDS011;2080;51.038;7.008;2022-09-21T03:44:24;434.73;;;351.47;;
4132;SDS011;2080;51.038;7.008;2022-09-21T03:46:50;450.07;;;400.60;;
4132;SDS011;2080;51.038;7.008;2022-09-21T03:49:21;466.47;;;416.50;;
4132;SDS011;2080;51.038;7.008;2022-09-21T03:51:47;425.77;;;313.70;;
4132;SDS011;2080;51.038;7.008;2022-09-21T03:54:15;444.57;;;395.13;;
4132;SDS011;2080;51.038;7.008;2022-09-21T03:56:40;530.83;;;477.57;;
4132;SDS011;2080;51.038;7.008;2022-09-21T03:59:06;458.23;;;408.80;;
4132;SDS011;2080;51.038;7.008;2022-09-21T04:01:31;471.70;;;421.43;;
4132;SDS011;2080;51.038;7.008;2022-09-21T04:03:56;494.67;;;444.17;;
4132;SDS011;2080;51.038;7.008;2022-09-21T04:06:26;524.57;;;471.83;;
4132;SDS011;2080;51.038;7.008;2022-09-21T04:08:56;492.77;;;442.30;;
4132;SDS011;2080;51.038;7.008;2022-09-21T04:11:24;534.80;;;481.63;;
4132;SDS011;2080;51.038;7.008;2022-09-21T04:13:49;437.43;;;352.70;;
4132;SDS011;2080;51.038;7.008;2022-09-21T04:16:24;547.17;;;493.77;;
4132;SDS011;2080;51.038;7.008;2022-09-21T04:18:54;436.20;;;378.93;;
4132;SDS011;2080;51.038;7.008;2022-09-21T04:21:19;599.30;;;543.73;;
4132;SDS011;2080;51.038;7.008;2022-09-21T04:23:46;514.97;;;463.17;;
4132;SDS011;2080;51.038;7.008;2022-09-21T04:26:22;554.90;;;501.30;;
4132;SDS011;2080;51.038;7.008;2022-09-21T04:28:49;528.57;;;474.57;;
4132;SDS011;2080;51.038;7.008;2022-09-21T04:31:19;468.53;;;418.33;;
4132;SDS011;2080;51.038;7.008;2022-09-21T04:33:48;453.70;;;379.90;;
4132;SDS011;2080;51.038;7.008;2022-09-21T04:36:16;473.83;;;423.60;;
4132;SDS011;2080;51.038;7.008;2022-09-21T04:38:44;489.93;;;439.40;;
4132;SDS011;2080;51.038;7.008;2022-09-21T04:41:10;493.47;;;442.93;;
4132;SDS011;2080;51.038;7.008;2022-09-21T04:43:36;509.27;;;457.47;;
4132;SDS011;2080;51.038;7.008;2022-09-21T04:46:06;516.93;;;464.77;;
4132;SDS011;2080;51.038;7.008;2022-09-21T04:48:34;502.47;;;450.73;;
4132;SDS011;2080;51.038;7.008;2022-09-21T04:51:00;435.40;;;372.60;;
4132;SDS011;2080;51.038;7.008;2022-09-21T04:53:28;526.93;;;474.47;;
4132;SDS011;2080;51.038;7.008;2022-09-21T04:55:57;448.27;;;363.60;;
4132;SDS011;2080;51.038;7.008;2022-09-21T04:58:24;461.07;;;398.50;;
4132;SDS011;2080;51.038;7.008;2022-09-21T05:00:50;444.47;;;371.37;;
4132;SDS011;2080;51.038;7.008;2022-09-21T05:03:19;458.47;;;404.83;;
4132;SDS011;2080;51.038;7.008;2022-09-21T05:05:48;451.00;;;376.83;;
4132;SDS011;2080;51.038;7.008;2022-09-21T05:08:15;447.60;;;378.17;;
4132;SDS011;2080;51.038;7.008;2022-09-21T05:10:42;422.07;;;332.70;;
4132;SDS011;2080;51.038;7.008;2022-09-21T05:13:10;421.90;;;312.27;;
4132;SDS011;2080;51.038;7.008;2022-09-21T05:15:37;427.70;;;325.90;;
4132;SDS011;2080;51.038;7.008;2022-09-21T05:18:03;413.60;;;288.63;;
4132;SDS011;2080;51.038;7.008;2022-09-21T05:20:29;424.17;;;313.97;;
4132;SDS011;2080;51.038;7.008;2022-09-21T05:22:54;447.67;;;361.20;;
4132;SDS011;2080;51.038;7.008;2022-09-21T05:25:25;437.67;;;346.73;;
4132;SDS011;2080;51.038;7.008;2022-09-21T05:27:53;437.10;;;369.23;;
4132;SDS011;2080;51.038;7.008;2022-09-21T05:30:18;471.27;;;398.67;;
4132;SDS011;2080;51.038;7.008;2022-09-21T05:32:47;474.10;;;415.93;;
4132;SDS011;2080;51.038;7.008;2022-09-21T05:35:37;507.30;;;455.63;;
4132;SDS011;2080;51.038;7.008;2022-09-21T05:38:17;552.20;;;497.93;;
4132;SDS011;2080;51.038;7.008;2022-09-21T05:40:43;457.70;;;407.73;;
4132;SDS011;2080;51.038;7.008;2022-09-21T05:43:11;426.57;;;332.97;;
4132;SDS011;2080;51.038;7.008;2022-09-21T05:45:38;469.70;;;412.60;;
4132;SDS011;2080;51.038;7.008;2022-09-21T05:48:22;485.33;;;435.10;;
4132;SDS011;2080;51.038;7.008;2022-09-21T05:58:39;498.60;;;446.03;;
4132;SDS011;2080;51.038;7.008;2022-09-21T06:01:12;490.27;;;437.50;;
4132;SDS011;2080;51.038;7.008;2022-09-21T06:03:57;472.03;;;421.13;;
4132;SDS011;2080;51.038;7.008;2022-09-21T06:06:25;503.23;;;449.40;;
4132;SDS011;2080;51.038;7.008;2022-09-21T06:08:51;438.47;;;334.77;;
4132;SDS011;2080;51.038;7.008;2022-09-21T06:11:18;480.83;;;427.93;;
4132;SDS011;2080;51.038;7.008;2022-09-21T06:13:44;521.33;;;467.37;;
4132;SDS011;2080;51.038;7.008;2022-09-21T06:16:09;508.77;;;455.30;;
4132;SDS011;2080;51.038;7.008;2022-09-21T06:18:36;506.83;;;454.47;;
4132;SDS011;2080;51.038;7.008;2022-09-21T06:21:05;483.13;;;432.13;;
4132;SDS011;2080;51.038;7.008;2022-09-21T06:23:33;496.50;;;444.23;;
4132;SDS011;2080;51.038;7.008;2022-09-21T06:25:59;460.07;;;409.90;;
4132;SDS011;2080;51.038;7.008;2022-09-21T06:28:25;511.03;;;458.80;;
4132;SDS011;2080;51.038;7.008;2022-09-21T06:30:51;449.40;;;395.33;;
4132;SDS011;2080;51.038;7.008;2022-09-21T06:33:18;475.67;;;425.17;;
4132;SDS011;2080;51.038;7.008;2022-09-21T06:35:52;532.43;;;479.10;;
4132;SDS011;2080;51.038;7.008;2022-09-21T06:38:19;443.83;;;362.90;;
4132;SDS011;2080;51.038;7.008;2022-09-21T06:40:49;527.23;;;473.67;;
4132;SDS011;2080;51.038;7.008;2022-09-21T06:43:16;536.40;;;483.40;;
4132;SDS011;2080;51.038;7.008;2022-09-21T06:45:44;528.83;;;475.63;;
4132;SDS011;2080;51.038;7.008;2022-09-21T06:48:17;502.37;;;450.33;;
4132;SDS011;2080;51.038;7.008;2022-09-21T06:50:42;603.73;;;546.73;;
4132;SDS011;2080;51.038;7.008;2022-09-21T06:53:08;592.47;;;536.20;;
4132;SDS011;2080;51.038;7.008;2022-09-21T06:55:33;501.73;;;449.33;;
4132;SDS011;2080;51.038;7.008;2022-09-21T06:58:01;558.23;;;503.90;;
4132;SDS011;2080;51.038;7.008;2022-09-21T07:00:27;561.87;;;507.87;;
4132;SDS011;2080;51.038;7.008;2022-09-21T07:02:53;458.53;;;404.67;;
4132;SDS011;2080;51.038;7.008;2022-09-21T07:05:18;565.47;;;511.30;;
4132;SDS011;2080;51.038;7.008;2022-09-21T07:07:44;517.80;;;464.60;;
4132;SDS011;2080;51.038;7.008;2022-09-21T07:10:12;597.80;;;541.80;;
4132;SDS011;2080;51.038;7.008;2022-09-21T07:12:37;621.77;;;563.27;;
4132;SDS011;2080;51.038;7.008;2022-09-21T07:15:03;534.43;;;481.47;;
4132;SDS011;2080;51.038;7.008;2022-09-21T07:17:37;513.67;;;461.53;;
4132;SDS011;2080;51.038;7.008;2022-09-21T07:20:07;521.23;;;467.37;;
4132;SDS011;2080;51.038;7.008;2022-09-21T07:22:35;534.87;;;480.63;;
4132;SDS011;2080;51.038;7.008;2022-09-21T07:25:01;644.40;;;586.17;;
4132;SDS011;2080;51.038;7.008;2022-09-21T07:27:30;635.17;;;576.13;;
4132;SDS011;2080;51.038;7.008;2022-09-21T07:29:56;576.23;;;520.90;;
4132;SDS011;2080;51.038;7.008;2022-09-21T07:32:22;571.67;;;515.47;;
4132;SDS011;2080;51.038;7.008;2022-09-21T07:34:49;574.47;;;518.10;;
4132;SDS011;2080;51.038;7.008;2022-09-21T07:37:15;582.07;;;525.70;;
4132;SDS011;2080;51.038;7.008;2022-09-21T07:39:40;563.93;;;508.27;;
4132;SDS011;2080;51.038;7.008;2022-09-21T07:42:05;633.07;;;573.77;;
4132;SDS011;2080;51.038;7.008;2022-09-21T07:44:33;618.47;;;560.37;;
4132;SDS011;2080;51.038;7.008;2022-09-21T07:47:01;585.73;;;528.57;;
4132;SDS011;2080;51.038;7.008;2022-09-21T07:49:27;599.07;;;541.63;;
4132;SDS011;2080;51.038;7.008;2022-09-21T07:51:52;588.07;;;531.57;;
4132;SDS011;2080;51.038;7.008;2022-09-21T07:54:18;556.13;;;500.93;;
4132;SDS011;2080;51.038;7.008;2022-09-21T07:56:43;641.03;;;581.60;;
4132;SDS011;2080;51.038;7.008;2022-09-21T07:59:29;620.03;;;561.07;;
4132;SDS011;2080;51.038;7.008;2022-09-21T08:01:56;598.90;;;543.20;;
4132;SDS011;2080;51.038;7.008;2022-09-21T08:04:21;558.33;;;503.43;;
4132;SDS011;2080;51.038;7.008;2022-09-21T08:06:49;637.17;;;579.50;;
4132;SDS011;2080;51.038;7.008;2022-09-21T08:09:19;625.93;;;568.07;;
4132;SDS011;2080;51.038;7.008;2022-09-21T08:11:44;615.20;;;558.80;;
4132;SDS011;2080;51.038;7.008;2022-09-21T08:14:11;685.13;;;623.13;;
4132;SDS011;2080;51.038;7.008;2022-09-21T08:16:43;426.77;;;359.83;;
4132;SDS011;2080;51.038;7.008;2022-09-21T08:19:14;504.03;;;445.30;;
4132;SDS011;2080;51.038;7.008;2022-09-21T08:21:41;457.13;;;382.67;;
4132;SDS011;2080;51.038;7.008;2022-09-21T08:24:07;328.60;;;126.70;;
4132;SDS011;2080;51.038;7.008;2022-09-21T08:26:33;392.50;;;225.30;;
4132;SDS011;2080;51.038;7.008;2022-09-21T08:29:03;336.73;;;160.93;;
4132;SDS011;2080;51.038;7.008;2022-09-21T08:31:34;286.80;;;59.40;;
4132;SDS011;2080;51.038;7.008;2022-09-21T08:33:59;334.40;;;128.27;;
4132;SDS011;2080;51.038;7.008;2022-09-21T08:36:26;306.27;;;87.73;;
4132;SDS011;2080;51.038;7.008;2022-09-21T08:38:52;291.07;;;61.23;;
4132;SDS011;2080;51.038;7.008;2022-09-21T08:44:27;667.05;;;608.10;;
4132;SDS011;2080;51.038;7.008;2022-09-21T08:47:04;299.70;;;67.10;;
4132;SDS011;2080;51.038;7.008;2022-09-21T08:49:38;313.70;;;64.13;;
4132;SDS011;2080;51.038;7.008;2022-09-21T08:52:13;376.47;;;201.47;;
4132;SDS011;2080;51.038;7.008;2022-09-21T08:54:53;301.57;;;53.47;;
4132;SDS011;2080;51.038;7.008;2022-09-21T08:57:21;312.50;;;81.47;;
4132;SDS011;2080;51.038;7.008;2022-09-21T08:59:53;305.10;;;78.60;;
4132;SDS011;2080;51.038;7.008;2022-09-21T09:02:33;349.27;;;135.33;;
4132;SDS011;2080;51.038;7.008;2022-09-21T09:15:57;300.87;;;54.33;;
4132;SDS011;2080;51.038;7.008;2022-09-21T09:18:32;302.93;;;36.13;;
4132;SDS011;2080;51.038;7.008;2022-09-21T09:21:12;283.47;;;42.53;;
4132;SDS011;2080;51.038;7.008;2022-09-21T09:26:26;326.00;;;104.77;;
4132;SDS011;2080;51.038;7.008;2022-09-21T09:29:02;307.17;;;52.30;;
4132;SDS011;2080;51.038;7.008;2022-09-21T09:31:37;359.53;;;178.60;;
4132;SDS011;2080;51.038;7.008;2022-09-21T09:36:35;371.10;;;180.70;;
4132;SDS011;2080;51.038;7.008;2022-09-21T09:39:16;369.27;;;175.17;;
4132;SDS011;2080;51.038;7.008;2022-09-21T09:50:41;452.37;;;340.53;;
4132;SDS011;2080;51.038;7.008;2022-09-21T09:53:15;329.40;;;95.67;;
4132;SDS011;2080;51.038;7.008;2022-09-21T09:55:44;445.60;;;358.97;;
4132;SDS011;2080;51.038;7.008;2022-09-21T09:58:19;395.40;;;212.70;;
4132;SDS011;2080;51.038;7.008;2022-09-21T10:01:07;369.17;;;132.70;;
4132;SDS011;2080;51.038;7.008;2022-09-21T10:03:35;348.70;;;102.93;;
4132;SDS011;2080;51.038;7.008;2022-09-21T10:06:01;390.97;;;184.80;;
4132;SDS011;2080;51.038;7.008;2022-09-21T10:11:10;318.83;;;59.77;;
4132;SDS011;2080;51.038;7.008;2022-09-21T10:13:42;339.00;;;86.40;;
4132;SDS011;2080;51.038;7.008;2022-09-21T10:16:18;406.83;;;255.80;;
4132;SDS011;2080;51.038;7.008;2022-09-21T10:18:51;338.93;;;88.53;;
4132;SDS011;2080;51.038;7.008;2022-09-21T10:21:26;333.57;;;80.93;;
4132;SDS011;2080;51.038;7.008;2022-09-21T10:26:46;670.50;;;607.00;;
4132;SDS011;2080;51.038;7.008;2022-09-21T10:31:54;553.43;;;496.30;;
4132;SDS011;2080;51.038;7.008;2022-09-21T10:34:23;407.27;;;255.87;;
4132;SDS011;2080;51.038;7.008;2022-09-21T10:36:53;452.53;;;329.50;;
4132;SDS011;2080;51.038;7.008;2022-09-21T10:39:27;428.00;;;291.23;;
4132;SDS011;2080;51.038;7.008;2022-09-21T10:44:25;392.37;;;200.50;;
4132;SDS011;2080;51.038;7.008;2022-09-21T10:46:53;381.80;;;182.53;;
4132;SDS011;2080;51.038;7.008;2022-09-21T10:49:20;373.67;;;164.33;;
4132;SDS011;2080;51.038;7.008;2022-09-21T10:51:46;369.70;;;158.13;;
4132;SDS011;2080;51.038;7.008;2022-09-21T10:54:16;343.10;;;100.30;;
4132;SDS011;2080;51.038;7.008;2022-09-21T10:56:51;371.27;;;146.47;;
4132;SDS011;2080;51.038;7.008;2022-09-21T10:59:21;363.83;;;138.80;;
4132;SDS011;2080;51.038;7.008;2022-09-21T11:01:49;341.80;;;110.33;;
4132;SDS011;2080;51.038;7.008;2022-09-21T11:07:19;383.63;;;175.80;;
4132;SDS011;2080;51.038;7.008;2022-09-21T11:21:34;352.97;;;88.63;;
4132;SDS011;2080;51.038;7.008;2022-09-21T11:26:58;345.40;;;92.47;;
4132;SDS011;2080;51.038;7.008;2022-09-21T11:29:37;324.87;;;48.33;;
4132;SDS011;2080;51.038;7.008;2022-09-21T11:32:17;320.97;;;42.90;;
4132;SDS011;2080;51.038;7.008;2022-09-21T11:40:32;294.07;;;37.33;;
4132;SDS011;2080;51.038;7.008;2022-09-21T11:46:01;298.27;;;45.50;;
4132;SDS011;2080;51.038;7.008;2022-09-21T11:54:15;302.40;;;36.87;;
4132;SDS011;2080;51.038;7.008;2022-09-21T12:21:00;425.30;;;260.03;;
4132;SDS011;2080;51.038;7.008;2022-09-21T12:23:44;353.10;;;112.17;;
4132;SDS011;2080;51.038;7.008;2022-09-21T12:26:16;346.53;;;108.17;;
4132;SDS011;2080;51.038;7.008;2022-09-21T12:28:50;409.37;;;234.93;;
4132;SDS011;2080;51.038;7.008;2022-09-21T12:31:20;338.57;;;101.33;;
4132;SDS011;2080;51.038;7.008;2022-09-21T12:33:55;359.30;;;130.87;;
4132;SDS011;2080;51.038;7.008;2022-09-21T12:36:31;385.70;;;166.17;;
4132;SDS011;2080;51.038;7.008;2022-09-21T12:41:51;303.07;;;44.97;;
4132;SDS011;2080;51.038;7.008;2022-09-21T12:52:52;294.77;;;34.53;;
4132;SDS011;2080;51.038;7.008;2022-09-21T13:06:39;330.50;;;71.80;;
4132;SDS011;2080;51.038;7.008;2022-09-21T13:09:09;336.33;;;106.47;;
4132;SDS011;2080;51.038;7.008;2022-09-21T13:11:54;362.37;;;132.53;;
4132;SDS011;2080;51.038;7.008;2022-09-21T13:14:26;341.57;;;128.60;;
4132;SDS011;2080;51.038;7.008;2022-09-21T13:16:59;352.37;;;146.60;;
4132;SDS011;2080;51.038;7.008;2022-09-21T13:19:28;351.57;;;119.37;;
4132;SDS011;2080;51.038;7.008;2022-09-21T13:22:12;357.17;;;153.47;;
4132;SDS011;2080;51.038;7.008;2022-09-21T13:27:59;354.67;;;150.20;;
4132;SDS011;2080;51.038;7.008;2022-09-21T13:33:36;350.40;;;149.47;;
4132;SDS011;2080;51.038;7.008;2022-09-21T13:36:06;338.50;;;112.97;;
4132;SDS011;2080;51.038;7.008;2022-09-21T13:54:50;312.90;;;53.80;;
4132;SDS011;2080;51.038;7.008;2022-09-21T14:02:36;298.97;;;43.93;;
4132;SDS011;2080;51.038;7.008;2022-09-21T14:05:23;294.20;;;38.03;;
4132;SDS011;2080;51.038;7.008;2022-09-21T14:10:38;328.13;;;79.43;;
4132;SDS011;2080;51.038;7.008;2022-09-21T14:13:06;291.13;;;37.60;;
4132;SDS011;2080;51.038;7.008;2022-09-21T14:24:47;301.07;;;45.60;;
4132;SDS011;2080;51.038;7.008;2022-09-21T14:27:19;294.77;;;36.83;;
4132;SDS011;2080;51.038;7.008;2022-09-21T14:32:44;326.23;;;43.53;;
4132;SDS011;2080;51.038;7.008;2022-09-21T14:35:17;319.47;;;48.00;;
4132;SDS011;2080;51.038;7.008;2022-09-21T14:37:53;322.10;;;57.10;;
4132;SDS011;2080;51.038;7.008;2022-09-21T14:40:25;308.73;;;45.43;;
4132;SDS011;2080;51.038;7.008;2022-09-21T14:42:58;315.40;;;47.53;;
4132;SDS011;2080;51.038;7.008;2022-09-21T14:45:29;385.83;;;204.77;;
4132;SDS011;2080;51.038;7.008;2022-09-21T14:48:37;350.83;;;146.07;;
4132;SDS011;2080;51.038;7.008;2022-09-21T14:51:26;335.87;;;123.73;;
4132;SDS011;2080;51.038;7.008;2022-09-21T14:54:05;346.43;;;137.23;;
4132;SDS011;2080;51.038;7.008;2022-09-21T15:01:56;360.63;;;129.80;;
4132;SDS011;2080;51.038;7.008;2022-09-21T15:07:43;344.93;;;139.37;;
4132;SDS011;2080;51.038;7.008;2022-09-21T15:13:13;351.87;;;152.93;;
4132;SDS011;2080;51.038;7.008;2022-09-21T15:15:56;335.57;;;117.10;;
4132;SDS011;2080;51.038;7.008;2022-09-21T15:18:32;349.03;;;137.60;;
4132;SDS011;2080;51.038;7.008;2022-09-21T15:21:14;337.33;;;94.40;;
4132;SDS011;2080;51.038;7.008;2022-09-21T15:23:45;355.33;;;103.00;;
4132;SDS011;2080;51.038;7.008;2022-09-21T15:26:19;342.37;;;96.33;;
4132;SDS011;2080;51.038;7.008;2022-09-21T15:29:00;340.70;;;138.60;;
4132;SDS011;2080;51.038;7.008;2022-09-21T15:31:34;346.87;;;114.37;;
4132;SDS011;2080;51.038;7.008;2022-09-21T15:34:04;329.00;;;52.43;;
4132;SDS011;2080;51.038;7.008;2022-09-21T15:36:35;321.87;;;88.87;;
4132;SDS011;2080;51.038;7.008;2022-09-21T15:39:03;331.57;;;107.23;;
4132;SDS011;2080;51.038;7.008;2022-09-21T15:41:42;331.03;;;105.90;;
4132;SDS011;2080;51.038;7.008;2022-09-21T15:44:17;332.20;;;93.90;;
4132;SDS011;2080;51.038;7.008;2022-09-21T15:46:47;311.03;;;68.63;;
4132;SDS011;2080;51.038;7.008;2022-09-21T15:49:16;341.60;;;83.77;;
4132;SDS011;2080;51.038;7.008;2022-09-21T15:51:45;330.73;;;104.30;;
4132;SDS011;2080;51.038;7.008;2022-09-21T15:54:30;326.77;;;64.97;;
4132;SDS011;2080;51.038;7.008;2022-09-21T15:57:04;324.13;;;94.73;;
4132;SDS011;2080;51.038;7.008;2022-09-21T15:59:48;308.40;;;62.53;;
4132;SDS011;2080;51.038;7.008;2022-09-21T16:02:18;326.53;;;80.67;;
4132;SDS011;2080;51.038;7.008;2022-09-21T16:04:49;323.57;;;88.70;;
4132;SDS011;2080;51.038;7.008;2022-09-21T16:09:49;310.90;;;59.40;;
4132;SDS011;2080;51.038;7.008;2022-09-21T16:14:50;296.80;;;41.00;;
4132;SDS011;2080;51.038;7.008;2022-09-21T16:17:25;327.77;;;103.43;;
4132;SDS011;2080;51.038;7.008;2022-09-21T16:25:12;365.67;;;172.37;;
4132;SDS011;2080;51.038;7.008;2022-09-21T16:27:48;366.53;;;158.27;;
4132;SDS011;2080;51.038;7.008;2022-09-21T16:30:37;335.87;;;119.27;;
4132;SDS011;2080;51.038;7.008;2022-09-21T16:38:55;330.53;;;85.00;;
4132;SDS011;2080;51.038;7.008;2022-09-21T16:41:21;321.40;;;83.10;;
4132;SDS011;2080;51.038;7.008;2022-09-21T16:43:50;342.20;;;89.77;;
4132;SDS011;2080;51.038;7.008;2022-09-21T16:46:16;311.17;;;69.23;;
4132;SDS011;2080;51.038;7.008;2022-09-21T16:48:42;328.27;;;92.77;;
4132;SDS011;2080;51.038;7.008;2022-09-21T16:51:11;320.97;;;62.07;;
4132;SDS011;2080;51.038;7.008;2022-09-21T16:53:37;307.23;;;62.57;;
4132;SDS011;2080;51.038;7.008;2022-09-21T16:56:04;305.10;;;51.20;;
4132;SDS011;2080;51.038;7.008;2022-09-21T16:58:38;321.97;;;42.97;;
4132;SDS011;2080;51.038;7.008;2022-09-21T17:01:10;295.43;;;44.53;;
4132;SDS011;2080;51.038;7.008;2022-09-21T17:03:37;297.90;;;38.53;;
4132;SDS011;2080;51.038;7.008;2022-09-21T17:06:18;305.60;;;38.50;;
4132;SDS011;2080;51.038;7.008;2022-09-21T17:08:47;351.87;;;91.00;;
4132;SDS011;2080;51.038;7.008;2022-09-21T17:11:17;293.53;;;38.93;;
4132;SDS011;2080;51.038;7.008;2022-09-21T17:13:50;292.30;;;38.73;;
4132;SDS011;2080;51.038;7.008;2022-09-21T17:16:18;413.27;;;226.33;;
4132;SDS011;2080;51.038;7.008;2022-09-21T17:18:47;365.37;;;103.53;;
4132;SDS011;2080;51.038;7.008;2022-09-21T17:21:15;332.80;;;80.87;;
4132;SDS011;2080;51.038;7.008;2022-09-21T17:23:41;378.83;;;178.73;;
4132;SDS011;2080;51.038;7.008;2022-09-21T17:26:13;485.73;;;429.83;;
4132;SDS011;2080;51.038;7.008;2022-09-21T17:28:45;448.33;;;358.60;;
4132;SDS011;2080;51.038;7.008;2022-09-21T17:31:11;401.13;;;194.30;;
4132;SDS011;2080;51.038;7.008;2022-09-21T17:33:38;485.63;;;427.63;;
4132;SDS011;2080;51.038;7.008;2022-09-21T17:36:04;430.07;;;296.00;;
4132;SDS011;2080;51.038;7.008;2022-09-21T17:38:35;389.83;;;202.00;;
4132;SDS011;2080;51.038;7.008;2022-09-21T17:41:01;400.63;;;229.70;;
4132;SDS011;2080;51.038;7.008;2022-09-21T17:43:45;458.00;;;339.37;;
4132;SDS011;2080;51.038;7.008;2022-09-21T17:46:24;409.30;;;238.10;;
4132;SDS011;2080;51.038;7.008;2022-09-21T17:48:55;409.13;;;234.37;;
4132;SDS011;2080;51.038;7.008;2022-09-21T17:51:21;415.17;;;255.73;;
4132;SDS011;2080;51.038;7.008;2022-09-21T17:54:05;361.40;;;153.40;;
4132;SDS011;2080;51.038;7.008;2022-09-21T17:59:19;385.67;;;223.50;;
4132;SDS011;2080;51.038;7.008;2022-09-21T18:01:51;314.00;;;49.43;;
4132;SDS011;2080;51.038;7.008;2022-09-21T18:04:18;339.93;;;54.07;;
4132;SDS011;2080;51.038;7.008;2022-09-21T18:06:43;330.03;;;98.40;;
4132;SDS011;2080;51.038;7.008;2022-09-21T18:09:10;344.10;;;109.30;;
4132;SDS011;2080;51.038;7.008;2022-09-21T18:14:35;422.77;;;313.83;;
4132;SDS011;2080;51.038;7.008;2022-09-21T18:17:38;320.80;;;74.47;;
4132;SDS011;2080;51.038;7.008;2022-09-21T18:27:57;347.70;;;140.57;;
4132;SDS011;2080;51.038;7.008;2022-09-21T18:30:27;401.80;;;268.00;;
4132;SDS011;2080;51.038;7.008;2022-09-21T18:38:21;330.97;;;103.87;;
4132;SDS011;2080;51.038;7.008;2022-09-21T18:41:09;345.00;;;94.60;;
4132;SDS011;2080;51.038;7.008;2022-09-21T18:46:18;335.73;;;103.53;;
4132;SDS011;2080;51.038;7.008;2022-09-21T18:48:55;389.50;;;224.03;;
4132;SDS011;2080;51.038;7.008;2022-09-21T18:51:50;438.47;;;353.30;;
4132;SDS011;2080;51.038;7.008;2022-09-21T18:54:19;396.40;;;233.50;;
4132;SDS011;2080;51.038;7.008;2022-09-21T18:56:46;327.53;;;101.67;;